createdAt,value
2023-11-21T00:01:38.386Z,13.54
2023-11-21T00:04:08.910Z,13.52
2023-11-21T00:06:36.979Z,13.54
2023-11-21T00:09:04.458Z,13.42
2023-11-21T00:11:33.469Z,13.44
2023-11-21T00:14:04.411Z,13.27
2023-11-21T00:16:31.637Z,13.00
2023-11-21T00:19:03.694Z,12.78
2023-11-21T00:21:30.878Z,12.60
2023-11-21T00:24:00.763Z,12.26
2023-11-21T00:26:27.920Z,12.09
2023-11-21T00:29:02.327Z,12.17
2023-11-21T00:31:29.521Z,12.31
2023-11-21T00:33:56.758Z,12.02
2023-11-21T00:36:27.058Z,12.08
2023-11-21T00:38:59.228Z,12.12
2023-11-21T00:41:30.285Z,11.98
2023-11-21T00:44:00.711Z,12.25
2023-11-21T00:46:30.607Z,11.91
2023-11-21T00:49:00.537Z,12.07
2023-11-21T00:51:27.782Z,12.06
2023-11-21T00:53:54.929Z,11.94
2023-11-21T00:56:22.816Z,11.60
2023-11-21T00:58:53.355Z,11.55
2023-11-21T01:01:24.203Z,11.76
2023-11-21T01:03:51.918Z,11.80
2023-11-21T01:06:19.476Z,11.68
2023-11-21T01:08:46.671Z,11.79
2023-11-21T01:11:16.203Z,11.71
2023-11-21T01:13:43.755Z,11.76
2023-11-21T01:16:13.684Z,12.00
2023-11-21T01:18:43.045Z,11.77
2023-11-21T01:21:13.141Z,11.70
2023-11-21T01:23:40.160Z,11.49
2023-11-21T01:26:08.567Z,11.05
2023-11-21T01:28:37.943Z,11.00
2023-11-21T01:31:05.462Z,11.05
2023-11-21T01:33:34.960Z,11.08
2023-11-21T01:36:02.037Z,11.09
2023-11-21T01:38:31.885Z,11.18
2023-11-21T01:41:01.796Z,11.08
2023-11-21T01:43:32.555Z,11.25
2023-11-21T01:46:00.044Z,11.10
2023-11-21T01:48:30.559Z,11.04
2023-11-21T01:50:57.799Z,10.87
2023-11-21T01:53:31.373Z,10.75
2023-11-21T01:56:01.010Z,10.74
2023-11-21T01:58:33.565Z,10.66
2023-11-21T02:01:01.030Z,10.60
2023-11-21T02:03:28.346Z,10.71
2023-11-21T02:05:55.571Z,10.76
2023-11-21T02:08:22.613Z,10.67
2023-11-21T02:10:52.123Z,10.59
2023-11-21T02:13:21.799Z,10.67
2023-11-21T02:15:51.011Z,10.68
2023-11-21T02:18:20.814Z,10.64
2023-11-21T02:20:48.342Z,10.64
2023-11-21T02:23:19.324Z,10.45
2023-11-21T02:25:49.851Z,10.65
2023-11-21T02:28:26.687Z,10.33
2023-11-21T02:30:57.990Z,10.42
2023-11-21T02:33:25.188Z,10.44
2023-11-21T02:35:55.891Z,10.52
2023-11-21T02:38:23.199Z,10.31
2023-11-21T02:40:53.203Z,10.20
2023-11-21T02:43:20.325Z,10.18
2023-11-21T02:45:47.490Z,10.47
2023-11-21T02:48:16.957Z,10.55
2023-11-21T02:50:44.430Z,10.56
2023-11-21T02:53:11.866Z,10.49
2023-11-21T02:55:41.766Z,10.50
2023-11-21T02:58:09.537Z,10.48
2023-11-21T03:00:38.816Z,10.56
2023-11-21T03:03:06.000Z,10.45
2023-11-21T03:05:36.744Z,10.41
2023-11-21T03:08:03.948Z,10.38
2023-11-21T03:10:30.863Z,10.40
2023-11-21T03:12:59.031Z,10.69
2023-11-21T03:15:28.956Z,10.62
2023-11-21T03:17:56.204Z,10.84
2023-11-21T03:20:26.686Z,10.90
2023-11-21T03:22:55.465Z,10.87
2023-11-21T03:25:25.502Z,10.97
2023-11-21T03:27:55.142Z,10.95
2023-11-21T03:30:22.372Z,10.96
2023-11-21T03:32:49.662Z,10.92
2023-11-21T03:35:17.095Z,10.92
2023-11-21T03:37:45.143Z,10.91
2023-11-21T03:40:14.026Z,10.80
2023-11-21T03:42:41.638Z,10.93
2023-11-21T03:45:13.923Z,10.66
2023-11-21T03:47:45.714Z,10.52
2023-11-21T03:50:15.626Z,10.30
2023-11-21T03:52:45.606Z,10.34
2023-11-21T03:55:16.132Z,10.35
2023-11-21T03:57:45.885Z,10.54
2023-11-21T04:00:14.168Z,10.51
2023-11-21T04:02:41.948Z,10.30
2023-11-21T04:05:10.497Z,10.32
2023-11-21T04:07:39.676Z,10.43
2023-11-21T04:10:10.824Z,10.54
2023-11-21T04:12:40.587Z,10.61
2023-11-21T04:15:10.549Z,10.58
2023-11-21T04:17:37.992Z,10.67
2023-11-21T04:20:12.114Z,10.49
2023-11-21T04:22:46.056Z,10.64
2023-11-21T04:25:17.482Z,10.62
2023-11-21T04:27:46.109Z,10.73
2023-11-21T04:30:15.175Z,10.65
2023-11-21T04:32:45.542Z,10.62
2023-11-21T04:35:13.110Z,10.60
2023-11-21T04:37:42.516Z,10.75
2023-11-21T04:40:10.768Z,10.82
2023-11-21T04:42:38.117Z,10.73
2023-11-21T04:45:10.267Z,10.86
2023-11-21T04:47:38.373Z,10.89
2023-11-21T04:50:07.256Z,10.85
2023-11-21T04:52:34.516Z,10.61
2023-11-21T04:55:04.231Z,10.70
2023-11-21T04:57:31.324Z,10.65
2023-11-21T04:59:58.590Z,10.74
2023-11-21T05:02:34.152Z,10.75
2023-11-21T05:05:07.545Z,10.66
2023-11-21T05:07:38.348Z,10.64
2023-11-21T05:10:13.723Z,10.68
2023-11-21T05:12:44.149Z,10.66
2023-11-21T05:15:15.829Z,10.76
2023-11-21T05:17:44.279Z,10.69
2023-11-21T05:20:19.254Z,10.27
2023-11-21T05:22:46.814Z,10.25
2023-11-21T05:25:14.197Z,10.22
2023-11-21T05:27:41.349Z,10.40
2023-11-21T05:30:14.021Z,10.52
2023-11-21T05:32:45.289Z,10.49
2023-11-21T05:35:17.275Z,10.48
2023-11-21T05:37:48.569Z,10.38
2023-11-21T05:40:16.121Z,10.43
2023-11-21T05:42:43.261Z,10.44
2023-11-21T05:45:14.105Z,10.63
2023-11-21T05:47:48.704Z,10.55
2023-11-21T05:50:19.806Z,10.61
2023-11-21T05:52:48.606Z,10.77
2023-11-21T05:55:16.696Z,10.66
2023-11-21T05:57:45.193Z,10.75
2023-11-21T06:00:26.827Z,10.79
2023-11-21T06:02:55.978Z,10.61
2023-11-21T06:05:26.019Z,10.59
2023-11-21T06:07:55.924Z,10.61
2023-11-21T06:10:26.484Z,10.60
2023-11-21T06:12:54.644Z,10.57
2023-11-21T06:15:25.022Z,10.48
2023-11-21T06:17:56.178Z,10.25
2023-11-21T06:20:24.212Z,10.33
2023-11-21T06:22:52.928Z,10.20
2023-11-21T06:25:20.414Z,10.40
2023-11-21T06:27:49.001Z,10.41
2023-11-21T06:30:17.604Z,10.45
2023-11-21T06:32:51.556Z,10.46
2023-11-21T06:35:18.816Z,10.38
2023-11-21T06:37:50.773Z,10.49
2023-11-21T06:40:21.865Z,10.46
2023-11-21T06:42:49.699Z,10.45
2023-11-21T06:45:18.060Z,10.54
2023-11-21T06:47:45.937Z,10.38
2023-11-21T06:50:18.368Z,10.51
2023-11-21T06:52:48.298Z,10.66
2023-11-21T06:55:16.057Z,10.80
2023-11-21T06:57:46.096Z,10.70
2023-11-21T07:00:14.894Z,10.47
2023-11-21T07:02:42.246Z,10.56
2023-11-21T07:05:15.588Z,10.54
2023-11-21T07:07:43.025Z,10.57
2023-11-21T07:10:10.457Z,10.58
2023-11-21T07:12:41.454Z,10.61
2023-11-21T07:15:12.592Z,10.53
2023-11-21T07:17:42.624Z,10.60
2023-11-21T07:20:12.624Z,10.56
2023-11-21T07:22:41.840Z,10.50
2023-11-21T07:25:10.724Z,10.52
2023-11-21T07:27:40.323Z,10.49
2023-11-21T07:30:11.369Z,10.47
2023-11-21T07:32:41.050Z,10.47
2023-11-21T07:35:09.404Z,10.58
2023-11-21T07:37:38.920Z,10.55
2023-11-21T07:40:10.037Z,10.57
2023-11-21T07:42:40.006Z,10.83
2023-11-21T07:45:08.380Z,10.83
2023-11-21T07:47:35.818Z,10.87
2023-11-21T07:50:08.967Z,10.76
2023-11-21T07:52:36.387Z,10.69
2023-11-21T07:55:04.709Z,10.65
2023-11-21T07:57:38.939Z,10.51
2023-11-21T08:00:10.829Z,10.61
2023-11-21T08:02:37.914Z,10.74
2023-11-21T08:05:05.396Z,10.67
2023-11-21T08:07:34.744Z,10.64
2023-11-21T08:10:01.923Z,10.75
2023-11-21T08:12:29.079Z,10.30
2023-11-21T08:14:56.227Z,10.32
2023-11-21T08:17:24.639Z,10.54
2023-11-21T08:19:52.743Z,10.71
2023-11-21T08:22:19.987Z,10.58
2023-11-21T08:24:47.785Z,10.66
2023-11-21T08:27:17.016Z,10.73
2023-11-21T08:29:45.314Z,10.74
2023-11-21T08:32:12.398Z,10.75
2023-11-21T08:34:41.504Z,10.64
2023-11-21T08:37:08.522Z,10.68
2023-11-21T08:39:35.614Z,10.75
2023-11-21T08:42:03.752Z,10.77
2023-11-21T08:44:33.107Z,10.71
2023-11-21T08:47:07.389Z,10.89
2023-11-21T08:49:35.641Z,10.85
2023-11-21T08:52:06.298Z,10.97
2023-11-21T08:54:36.369Z,10.98
2023-11-21T08:57:06.292Z,11.03
2023-11-21T08:59:34.313Z,11.01
2023-11-21T09:02:01.505Z,11.07
2023-11-21T09:04:33.089Z,11.16
2023-11-21T09:07:01.337Z,11.22
2023-11-21T09:09:31.947Z,10.89
2023-11-21T09:12:01.780Z,11.04
2023-11-21T09:14:29.598Z,11.23
2023-11-21T09:16:57.809Z,11.29
2023-11-21T09:19:26.089Z,11.39
2023-11-21T09:21:53.323Z,11.16
2023-11-21T09:24:20.344Z,11.56
2023-11-21T09:26:47.503Z,11.64
2023-11-21T09:29:15.125Z,11.59
2023-11-21T09:31:43.530Z,11.81
2023-11-21T09:34:12.122Z,11.84
2023-11-21T09:36:42.159Z,11.83
2023-11-21T09:39:11.614Z,12.10
2023-11-21T09:42:24.132Z,11.85
2023-11-21T09:45:27.556Z,11.78
2023-11-21T09:47:59.371Z,11.85
2023-11-21T09:50:27.865Z,11.54
2023-11-21T09:53:22.828Z,11.87
2023-11-21T09:55:54.150Z,12.38
2023-11-21T09:58:24.554Z,12.43
2023-11-21T10:00:57.908Z,12.34
2023-11-21T10:03:25.600Z,12.67
2023-11-21T10:05:54.721Z,12.66
2023-11-21T10:08:25.170Z,12.62
2023-11-21T10:10:57.898Z,12.91
2023-11-21T10:13:25.693Z,12.68
2023-11-21T10:15:53.911Z,12.85
2023-11-21T10:18:26.081Z,12.43
2023-11-21T10:20:56.351Z,12.43
2023-11-21T10:23:25.092Z,12.31
2023-11-21T10:25:54.193Z,12.28
2023-11-21T10:28:23.983Z,12.19
2023-11-21T10:30:53.623Z,12.13
2023-11-21T10:33:31.257Z,12.27
2023-11-21T10:35:58.706Z,12.11
2023-11-21T10:38:29.784Z,12.27
2023-11-21T10:40:57.057Z,12.21
2023-11-21T10:43:28.277Z,12.02
2023-11-21T10:46:02.332Z,11.69
2023-11-21T10:48:29.474Z,11.88
2023-11-21T10:50:57.793Z,12.11
2023-11-21T10:53:25.198Z,12.10
2023-11-21T10:56:03.167Z,12.26
2023-11-21T10:58:33.717Z,12.23
2023-11-21T11:01:05.786Z,12.63
2023-11-21T11:03:34.705Z,12.48
2023-11-21T11:06:02.376Z,12.11
2023-11-21T11:08:29.602Z,11.67
2023-11-21T11:10:57.669Z,11.63
2023-11-21T11:13:28.190Z,11.59
2023-11-21T11:16:03.661Z,11.51
2023-11-21T11:18:31.340Z,11.68
2023-11-21T11:21:38.705Z,12.04
2023-11-21T11:24:37.268Z,12.51
2023-11-21T11:27:35.526Z,12.37
2023-11-21T11:30:08.794Z,12.54
2023-11-21T11:32:59.295Z,12.64
2023-11-21T11:35:44.117Z,12.81
2023-11-21T11:38:12.096Z,13.02
2023-11-21T11:40:46.338Z,13.16
2023-11-21T11:43:16.576Z,13.14
2023-11-21T11:45:45.528Z,12.86
2023-11-21T11:48:17.846Z,12.63
2023-11-21T11:51:12.556Z,12.23
2023-11-21T11:53:47.779Z,12.04
2023-11-21T11:56:33.026Z,11.95
2023-11-21T11:59:10.358Z,11.61
2023-11-21T12:01:37.729Z,11.65
2023-11-21T12:04:24.899Z,11.56
2023-11-21T12:06:56.209Z,11.64
2023-11-21T12:09:27.912Z,11.62
2023-11-21T12:11:57.731Z,11.51
2023-11-21T12:14:24.895Z,11.45
2023-11-21T12:16:53.056Z,11.70
2023-11-21T12:19:22.021Z,11.55
2023-11-21T12:21:51.745Z,11.55
2023-11-21T12:24:20.735Z,11.50
2023-11-21T12:26:47.821Z,11.28
2023-11-21T12:29:17.846Z,11.08
2023-11-21T12:31:51.082Z,11.16
2023-11-21T12:34:20.792Z,11.26
2023-11-21T12:36:50.509Z,11.09
2023-11-21T12:39:18.534Z,11.23
2023-11-21T12:41:46.814Z,11.36
2023-11-21T12:44:16.529Z,11.49
2023-11-21T12:46:46.308Z,11.46
2023-11-21T12:49:19.119Z,11.43
2023-11-21T12:51:47.774Z,11.31
2023-11-21T12:54:17.148Z,11.23
2023-11-21T12:56:50.065Z,11.11
2023-11-21T12:59:19.216Z,11.31
2023-11-21T13:01:52.423Z,11.36
2023-11-21T13:04:19.986Z,11.32
2023-11-21T13:06:49.962Z,11.32
2023-11-21T13:09:22.976Z,11.02
2023-11-21T13:12:04.703Z,11.22
2023-11-21T13:14:33.164Z,11.21
2023-11-21T13:17:00.405Z,10.96
2023-11-21T13:19:30.795Z,11.05
2023-11-21T13:21:59.934Z,11.10
2023-11-21T13:24:29.366Z,11.13
2023-11-21T13:26:59.214Z,11.05
2023-11-21T13:29:28.594Z,10.80
2023-11-21T13:31:56.606Z,10.98
2023-11-21T13:34:29.319Z,10.97
2023-11-21T13:37:04.323Z,11.03
2023-11-21T13:39:33.761Z,11.06
2023-11-21T13:42:04.832Z,11.21
2023-11-21T13:44:38.890Z,11.23
2023-11-21T13:47:07.495Z,11.24
2023-11-21T13:49:41.881Z,11.21
2023-11-21T13:52:09.123Z,11.23
2023-11-21T13:54:36.202Z,11.14
2023-11-21T13:57:04.432Z,11.17
2023-11-21T13:59:33.159Z,11.15
2023-11-21T14:02:17.825Z,10.94
2023-11-21T14:04:54.371Z,11.06
2023-11-21T14:07:34.254Z,11.08
2023-11-21T14:10:01.802Z,11.11
2023-11-21T14:12:37.574Z,10.87
2023-11-21T14:15:09.343Z,10.97
2023-11-21T14:17:40.924Z,10.87
2023-11-21T14:20:15.808Z,10.85
2023-11-21T14:22:43.550Z,10.79
2023-11-21T14:25:13.923Z,10.77
2023-11-21T14:27:41.193Z,10.80
2023-11-21T14:30:09.455Z,10.79
2023-11-21T14:32:39.468Z,10.79
2023-11-21T14:35:09.287Z,10.80
2023-11-21T14:37:36.854Z,10.81
2023-11-21T14:40:09.179Z,10.99
2023-11-21T14:42:40.102Z,10.87
2023-11-21T14:45:13.359Z,10.85
2023-11-21T14:47:48.178Z,10.83
2023-11-21T14:50:44.599Z,10.88
2023-11-21T14:53:16.798Z,10.99
2023-11-21T14:55:57.977Z,10.85
2023-11-21T14:58:28.497Z,10.78
2023-11-21T15:01:01.534Z,10.86
2023-11-21T15:03:34.217Z,10.88
2023-11-21T15:06:22.231Z,11.04
2023-11-21T15:09:09.201Z,11.11
2023-11-21T15:11:38.828Z,10.98
2023-11-21T15:14:09.477Z,10.75
2023-11-21T15:16:43.127Z,10.62
2023-11-21T15:19:19.339Z,10.75
2023-11-21T15:21:49.619Z,10.60
2023-11-21T15:24:19.188Z,10.48
2023-11-21T15:26:46.639Z,10.52
2023-11-21T15:29:15.169Z,10.59
2023-11-21T15:31:47.083Z,10.57
2023-11-21T15:34:16.121Z,10.52
2023-11-21T15:36:45.858Z,10.60
2023-11-21T15:39:13.064Z,10.52
2023-11-21T15:41:43.840Z,10.54
2023-11-21T15:44:12.614Z,10.53
2023-11-21T15:46:43.819Z,10.39
2023-11-21T15:49:17.845Z,10.39
2023-11-21T15:51:54.082Z,10.38
2023-11-21T15:54:23.113Z,10.39
2023-11-21T15:56:50.560Z,10.10
2023-11-21T15:59:20.783Z,10.14
2023-11-21T16:01:50.129Z,10.16
2023-11-21T16:04:18.568Z,10.27
2023-11-21T16:06:48.068Z,10.35
2023-11-21T16:09:32.405Z,10.30
2023-11-21T16:12:05.011Z,10.14
2023-11-21T16:14:40.227Z,10.12
2023-11-21T16:17:10.468Z,10.00
2023-11-21T16:19:40.159Z,10.04
2023-11-21T16:22:07.970Z,10.06
2023-11-21T16:24:35.353Z,10.03
2023-11-21T16:27:03.527Z,10.09
2023-11-21T16:29:34.704Z,10.11
2023-11-21T16:32:02.667Z,10.18
2023-11-21T16:34:30.541Z,10.29
2023-11-21T16:36:57.588Z,10.22
2023-11-21T16:39:24.843Z,10.08
2023-11-21T16:41:52.813Z,10.22
2023-11-21T16:44:21.997Z,10.24
2023-11-21T16:46:55.251Z,10.15
2023-11-21T16:49:25.037Z,10.19
2023-11-21T16:51:52.438Z,10.24
2023-11-21T16:54:22.247Z,10.08
2023-11-21T16:56:51.763Z,9.92
2023-11-21T16:59:19.724Z,9.96
2023-11-21T17:01:49.366Z,9.87
2023-11-21T17:04:16.750Z,9.82
2023-11-21T17:06:45.178Z,9.78
2023-11-21T17:09:15.542Z,9.90
2023-11-21T17:11:44.035Z,10.02
2023-11-21T17:14:14.748Z,9.91
2023-11-21T17:16:43.173Z,9.70
2023-11-21T17:19:10.321Z,9.56
2023-11-21T17:21:40.029Z,9.69
2023-11-21T17:24:10.179Z,9.85
2023-11-21T17:26:37.276Z,9.75
2023-11-21T17:29:05.497Z,9.80
2023-11-21T17:31:33.122Z,9.70
2023-11-21T17:34:00.273Z,9.44
2023-11-21T17:36:27.403Z,9.14
2023-11-21T17:38:55.220Z,9.35
2023-11-21T17:41:23.741Z,9.00
2023-11-21T17:43:52.426Z,9.21
2023-11-21T17:46:24.471Z,9.18
2023-11-21T17:48:55.524Z,9.09
2023-11-21T17:51:25.376Z,9.23
2023-11-21T17:54:01.861Z,9.35
2023-11-21T17:56:29.715Z,9.14
2023-11-21T17:58:57.929Z,8.96
2023-11-21T18:01:31.762Z,9.17
2023-11-21T18:04:01.763Z,9.12
2023-11-21T18:06:29.736Z,9.21
2023-11-21T18:09:00.227Z,9.01
2023-11-21T18:11:29.640Z,8.79
2023-11-21T18:13:56.947Z,8.86
2023-11-21T18:16:28.402Z,8.98
2023-11-21T18:18:55.648Z,8.94
2023-11-21T18:21:22.713Z,9.16
2023-11-21T18:23:52.557Z,9.29
2023-11-21T18:26:21.947Z,9.07
2023-11-21T18:28:49.176Z,9.25
2023-11-21T18:31:16.745Z,9.35
2023-11-21T18:33:46.306Z,9.27
2023-11-21T18:36:16.689Z,9.14
2023-11-21T18:38:43.932Z,9.20
2023-11-21T18:41:11.822Z,9.03
2023-11-21T18:43:44.870Z,9.13
2023-11-21T18:46:14.633Z,9.09
2023-11-21T18:48:43.631Z,9.07
2023-11-21T18:51:10.716Z,9.09
2023-11-21T18:53:41.076Z,8.71
2023-11-21T18:56:11.022Z,8.89
2023-11-21T18:58:38.249Z,8.91
2023-11-21T19:01:07.965Z,9.04
2023-11-21T19:03:38.059Z,9.11
2023-11-21T19:06:05.732Z,9.21
2023-11-21T19:08:36.171Z,9.17
2023-11-21T19:11:05.575Z,9.27
2023-11-21T19:13:32.805Z,9.36
2023-11-21T19:16:02.688Z,9.42
2023-11-21T19:18:31.600Z,9.37
2023-11-21T19:21:01.312Z,9.20
2023-11-21T19:23:29.167Z,9.19
2023-11-21T19:26:01.973Z,9.00
2023-11-21T19:28:29.615Z,8.99
2023-11-21T19:31:03.674Z,8.71
2023-11-21T19:33:36.036Z,8.82
2023-11-21T19:36:12.543Z,9.01
2023-11-21T19:38:47.373Z,9.11
2023-11-21T19:41:26.421Z,9.05
2023-11-21T19:44:00.062Z,8.86
2023-11-21T19:46:29.410Z,9.06
2023-11-21T19:49:05.542Z,8.99
2023-11-21T19:51:37.491Z,8.70
2023-11-21T19:54:14.415Z,8.70
2023-11-21T19:56:46.788Z,8.95
2023-11-21T19:59:15.997Z,8.90
2023-11-21T20:01:55.420Z,8.68
2023-11-21T20:04:24.948Z,8.73
2023-11-21T20:07:02.670Z,8.86
2023-11-21T20:09:36.181Z,8.92
2023-11-21T20:12:08.378Z,8.80
2023-11-21T20:14:38.498Z,8.82
2023-11-21T20:17:08.785Z,8.87
2023-11-21T20:19:37.548Z,8.57
2023-11-21T20:22:06.962Z,8.35
2023-11-21T20:24:36.813Z,8.47
2023-11-21T20:27:07.367Z,8.44
2023-11-21T20:29:35.542Z,8.45
2023-11-21T20:32:03.149Z,8.52
2023-11-21T20:34:30.024Z,8.68
2023-11-21T20:36:57.220Z,8.65
2023-11-21T20:39:24.289Z,8.64
2023-11-21T20:41:55.777Z,8.63
2023-11-21T20:44:26.813Z,8.69
2023-11-21T20:47:03.495Z,8.78
2023-11-21T20:49:41.728Z,8.87
2023-11-21T20:52:15.227Z,8.89
2023-11-21T20:54:45.801Z,8.81
2023-11-21T20:57:13.647Z,8.81
2023-11-21T20:59:41.092Z,8.78
2023-11-21T21:02:08.184Z,8.83
2023-11-21T21:04:35.511Z,8.74
2023-11-21T21:07:02.692Z,8.70
2023-11-21T21:09:33.718Z,8.69
2023-11-21T21:12:03.632Z,8.82
2023-11-21T21:14:33.666Z,8.73
2023-11-21T21:17:04.341Z,8.72
2023-11-21T21:19:34.461Z,8.66
2023-11-21T21:22:02.187Z,8.83
2023-11-21T21:24:29.412Z,8.70
2023-11-21T21:27:01.599Z,8.63
2023-11-21T21:29:33.588Z,8.63
2023-11-21T21:32:00.801Z,8.63
2023-11-21T21:34:27.977Z,8.76
2023-11-21T21:36:57.831Z,8.65
2023-11-21T21:39:24.880Z,8.62
2023-11-21T21:41:52.289Z,8.56
2023-11-21T21:44:19.423Z,8.65
2023-11-21T21:46:47.443Z,8.51
2023-11-21T21:49:16.490Z,8.68
2023-11-21T21:51:43.751Z,8.60
2023-11-21T21:54:13.102Z,8.55
2023-11-21T21:56:40.231Z,8.62
2023-11-21T21:59:09.533Z,8.61
2023-11-21T22:01:44.875Z,8.39
2023-11-21T22:04:15.050Z,8.34
2023-11-21T22:06:46.949Z,8.06
2023-11-21T22:09:14.259Z,7.89
2023-11-21T22:11:41.831Z,7.97
2023-11-21T22:14:12.839Z,7.73
2023-11-21T22:16:39.960Z,7.83
2023-11-21T22:19:07.361Z,7.77
2023-11-21T22:21:34.492Z,7.83
2023-11-21T22:24:01.673Z,7.62
2023-11-21T22:26:31.008Z,7.44
2023-11-21T22:28:58.668Z,7.55
2023-11-21T22:31:25.826Z,7.48
2023-11-21T22:33:53.017Z,7.55
2023-11-21T22:36:21.866Z,7.44
2023-11-21T22:38:49.236Z,7.44
2023-11-21T22:41:28.136Z,7.31
2023-11-21T22:43:55.837Z,7.34
2023-11-21T22:46:23.930Z,7.40
2023-11-21T22:48:54.212Z,7.47
2023-11-21T22:51:23.991Z,7.57
2023-11-21T22:53:54.625Z,7.52
2023-11-21T22:56:23.395Z,7.57
2023-11-21T22:58:51.040Z,7.48
2023-11-21T23:01:20.945Z,7.42
2023-11-21T23:03:48.628Z,7.51
2023-11-21T23:06:22.848Z,7.56
2023-11-21T23:08:52.211Z,7.42
2023-11-21T23:11:19.164Z,7.45
2023-11-21T23:13:46.551Z,7.43
2023-11-21T23:16:18.214Z,7.41
2023-11-21T23:18:52.042Z,7.23
2023-11-21T23:21:19.312Z,7.07
2023-11-21T23:23:51.788Z,7.26
2023-11-21T23:26:19.428Z,7.11
2023-11-21T23:28:46.681Z,7.09
2023-11-21T23:31:13.853Z,6.88
2023-11-21T23:33:41.462Z,7.06
2023-11-21T23:36:09.270Z,7.19
2023-11-21T23:38:36.919Z,7.12
2023-11-21T23:41:06.357Z,7.08
2023-11-21T23:43:33.692Z,7.02
2023-11-21T23:46:03.452Z,7.02
2023-11-21T23:48:30.682Z,7.04
2023-11-21T23:51:00.115Z,6.86
2023-11-21T23:53:29.691Z,6.91
2023-11-21T23:55:57.574Z,7.02
2023-11-21T23:58:24.876Z,7.04
